Nearby METAR Reports

 

KNFE - Fentress Naval, Virginia, USA
Distance from station: ENE 5mi, 7km
Updated: Sat, 16-Jan-2021 12:56am EST
Rain, Overcast
Rain, Overcast
 Wind from WNW
Wind: WNW 6 mph , 9 km/h
Temperature: 46°F , 8°C
Wind Chill: 43°F , 6°C
Dew Point: 43°F , 6°C
Humidity: 87%
Barometer: 29.65 inHg , 1004.1 hPa
Summary: Rain
Clouds: Overcast
Visibility: 9 miles , 14 km
Cloud details: Partly cloudy 3300 ft
Overcast 5000 ft
2021/01/16 05:56 KNFE 160556Z AUTO 30005KT 9SM RA SCT033 OVC050 08/06 A2965 RMK AO2 SLP041 P0004 60004 T00780061 10111 20078 56017 $
KCPK - Chesapeake, Virginia, USA
Distance from station: W 6mi, 9km
Updated: Sat, 16-Jan-2021 1:35am EST
Light rain, Overcast
Light rain, Overcast
 Wind from NE
Wind: NE 3 mph , 6 km/h
Temperature: 45°F , 7°C
Dew Point: 43°F , 6°C
Humidity: 93%
Barometer: 29.63 inHg , 1003.4 hPa
Summary: Light rain
Clouds: Overcast
Visibility: 10 miles , 16 km
Cloud details: Mostly cloudy 6000 ft
Overcast 8000 ft
2021/01/16 06:35 KCPK 160635Z AUTO 05003KT 10SM -RA BKN060 OVC080 07/06 A2963 RMK AO2 T00700061
 
KNTU - Oceana Nas/Souce, Virginia, USA
Distance from station: NE 14mi, 23km
Updated: Sat, 16-Jan-2021 12:56am EST
Light rain, Overcast
Light rain, Overcast
 Wind from NW
Wind: NW 9 mph , 15 km/h
Temperature: 48°F , 9°C
Wind Chill: 44°F , 7°C
Dew Point: 43°F , 6°C
Humidity: 82%
Barometer: 29.64 inHg , 1003.7 hPa
Summary: Light rain
Clouds: Overcast
Visibility: 5 miles , 8 km
Cloud details: Partly cloudy 3500 ft
Overcast 5000 ft
2021/01/16 05:56 KNTU 160556Z 31008KT 5SM -RA SCT035 OVC050 09/06 A2964 RMK AO2 SLP039 P0007 60007 T00940056 10128 20094 55014
KORF - Norfolk, Virginia, USA
Distance from station: N 15mi, 24km
Updated: Sat, 16-Jan-2021 12:51am EST
Rain, Overcast
Rain, Overcast
 Wind from WNW
Wind: WNW 6 mph , 9 km/h
Temperature: 48°F , 9°C
Wind Chill: 45°F , 7°C
Dew Point: 43°F , 6°C
Humidity: 82%
Barometer: 29.64 inHg , 1003.7 hPa
Summary: Rain
Clouds: Overcast
Visibility: 7 miles , 11 km
Cloud details: Overcast 5500 ft
2021/01/16 05:51 KORF 160551Z 29005KT 7SM RA OVC055 09/06 A2964 RMK AO2 SLP038 P0003 60003 T00890061 10139 20089 56019
 
KPVG - Norfolk/Hampton, Virginia, USA
Distance from station: WNW 15mi, 24km
Updated: Mon, 11-Jan-2021 11:56am EST
NOT Current
Few Clouds
Few Clouds
 Wind from SSW
Wind: SSW 5 mph , 7 km/h
Temperature: 43°F , 6°C
Wind Chill: 40°F , 4°C
Dew Point: 34°F , 1°C
Humidity: 71%
Barometer: 30.33 inHg , 1027.1 hPa
Clouds: Few Clouds
Visibility: 10 miles , 16 km
Cloud details: Few Clouds 11000 ft
2021/01/11 16:56 KPVG 111656Z AUTO 20004KT 10SM FEW110 06/01 A3033 RMK AO2 SLP271 T00610006
KNGU - Norfolk Nas/Cham, Virginia, USA
Distance from station: N 16mi, 26km
Updated: Sat, 16-Jan-2021 1:06am EST
Light rain, Overcast
Light rain, Overcast
 Wind from W
Wind: W 8 mph , 13 km/h
Temperature: 46°F , 8°C
Wind Chill: 42°F , 6°C
Dew Point: 43°F , 6°C
Humidity: 87%
Barometer: 29.66 inHg , 1004.4 hPa
Summary: Light rain
Clouds: Overcast
Visibility: 8 miles , 13 km
Cloud details: Partly cloudy 4200 ft
Overcast 5500 ft
2021/01/16 06:06 KNGU 160606Z 28007KT 8SM -RA SCT042 OVC055 08/06 A2966 RMK AO2 P0001 T00830056 $
 
KSFQ - Suffolk, Virginia, USA
Distance from station: W 21mi, 34km
Updated: Sat, 16-Jan-2021 1:35am EST
Overcast
Overcast
 Wind from calm
Wind: Calm
Temperature: 46°F , 8°C
Dew Point: 45°F , 7°C
Humidity: 93%
Barometer: 29.62 inHg , 1003 hPa
Clouds: Overcast
Visibility: 10 miles , 16 km
Cloud details: Partly cloudy 4900 ft
Mostly cloudy 5500 ft
Overcast 7500 ft
2021/01/16 06:35 KSFQ 160635Z AUTO 00000KT 10SM SCT049 BKN055 OVC075 08/07 A2962 RMK AO2 P0002 T00750072
KONX - Currituck, North Carolina, USA
Distance from station: SSE 22mi, 36km
Updated: Sat, 16-Jan-2021 1:35am EST
Light rain, Overcast
Light rain, Overcast
 Wind from NW
Wind: NW 6 mph , 9 km/h
Temperature: 46°F , 8°C
Wind Chill: 43°F , 6°C
Dew Point: 46°F , 8°C
Humidity: 100%
Barometer: 29.63 inHg , 1003.4 hPa
Summary: Light rain
Clouds: Overcast
Visibility: 10 miles , 16 km
Cloud details: Partly cloudy 5000 ft
Overcast 7000 ft
2021/01/16 06:35 KONX 160635Z AUTO 31005KT 10SM -RA SCT050 OVC070 08/08 A2963 RMK AO2 P0004 T00770077
 
KLFI - Langley Afb/Hamp, Virginia, USA
Distance from station: NNW 28mi, 45km
Updated: Sat, 16-Jan-2021 1:26am EST
Light rain, Mostly cloudy
Light rain, Mostly cloudy
 Wind from calm
Wind: Calm
Temperature: 46°F , 8°C
Dew Point: 46°F , 8°C
Humidity: 100%
Barometer: 29.63 inHg , 1003.4 hPa
Summary: Light rain
Clouds: Mostly cloudy
Visibility: 10 miles , 16 km
Cloud details: Mostly cloudy 2200 ft
2021/01/16 06:26 KLFI 160626Z AUTO 00000KT 10SM -RA BKN022 08/08 A2963 RMK AO2 RAE09DZB09E10RAB10 SLP040 $
KECG - Elizabeth City, North Carolina, USA
Distance from station: S 29mi, 46km
Updated: Sat, 16-Jan-2021 12:54am EST
Light rain, Overcast
Light rain, Overcast
 Wind from W
Wind: W 8 mph , 13 km/h, Gust: 25 mph , 41 km/h
Temperature: 48°F , 9°C
Wind Chill: 44°F , 7°C
Dew Point: 48°F , 9°C
Humidity: 100%
Barometer: 29.65 inHg , 1004.1 hPa
Summary: Light rain
Clouds: Overcast
Visibility: 8 miles , 13 km
Cloud details: Few Clouds 1800 ft
Partly cloudy 4800 ft
Overcast 6000 ft
2021/01/16 05:54 KECG 160554Z 28007G22KT 8SM -RA FEW018 SCT048 OVC060 09/09 A2965 RMK AO2 SLP039 P0006 60008 T00890089 10117 20089 56015
 
KPHF - Newport News, Virginia, USA
Distance from station: NNW 35mi, 56km
Updated: Sat, 16-Jan-2021 12:54am EST
Rain, Mist, Overcast
Rain, Mist, Overcast
 Wind from W
Wind: W 5 mph , 7 km/h
Temperature: 45°F , 7°C
Wind Chill: 42°F , 6°C
Dew Point: 43°F , 6°C
Humidity: 93%
Barometer: 29.64 inHg , 1003.7 hPa
Summary: Rain, Mist
Clouds: Overcast
Visibility: 6 miles , 10 km
Cloud details: Overcast 4400 ft
2021/01/16 05:54 KPHF 160554Z AUTO 26004KT 6SM RA BR OVC044 07/06 A2964 RMK AO2 SLP035 P0008 60041 T00720061 10083 20072 58016
KFAF - Ft Eustis/Felker, Virginia, USA
Distance from station: NW 37mi, 60km
Updated: Sat, 16-Jan-2021 1:18am EST
Clear
Clear
 Wind from E
Wind: E 6 mph , 9 km/h
Temperature: 46°F , 8°C
Wind Chill: 43°F , 6°C
Dew Point: 43°F , 6°C
Humidity: 87%
Barometer: 29.58 inHg , 1001.7 hPa
Clouds: Clear
Visibility: 10 miles , 16 km
2021/01/16 06:18 KFAF 160618Z AUTO 10005KT 10SM CLR 08/06 A2958 RMK AO2 RAB08E18 SLP020 $
 
KFKN - Franklin/J B Ros, Virginia, USA
Distance from station: W 38mi, 61km
Updated: Sat, 16-Jan-2021 1:35am EST
Overcast
Overcast
 Wind from calm
Wind: Calm
Temperature: 45°F , 7°C
Dew Point: 43°F , 6°C
Humidity: 93%
Barometer: 29.61 inHg , 1002.7 hPa
Clouds: Overcast
Visibility: 10 miles , 16 km
Cloud details: Overcast 9000 ft
2021/01/16 06:35 KFKN 160635Z AUTO 00000KT 10SM OVC090 07/06 A2961 RMK AO2 T00660063
KJGG - Williamsburg, Virginia, USA
Distance from station: NW 47mi, 76km
Updated: Sat, 16-Jan-2021 1:35am EST
Overcast
Overcast
 Wind from calm
Wind: Calm
Temperature: 46°F , 8°C
Dew Point: 45°F , 7°C
Humidity: 93%
Barometer: 29.61 inHg , 1002.7 hPa
Clouds: Overcast
Visibility: 10 miles , 16 km
Cloud details: Partly cloudy 5000 ft
Partly cloudy 6500 ft
Overcast 10000 ft
2021/01/16 06:35 KJGG 160635Z AUTO 00000KT 10SM SCT050 SCT065 OVC100 08/07 A2961 RMK AO1 P0001
 
KAKQ - Norfolk/Wakefld, Virginia, USA
Distance from station: WNW 48mi, 78km
Updated: Sat, 16-Jan-2021 12:54am EST
Light rain, Overcast
Light rain, Overcast
 Wind from WSW
Wind: WSW 6 mph , 9 km/h
Temperature: 46°F , 8°C
Wind Chill: 43°F , 6°C
Dew Point: 45°F , 7°C
Humidity: 93%
Barometer: 29.62 inHg , 1003 hPa
Summary: Light rain
Clouds: Overcast
Visibility: 10 miles , 16 km
Cloud details: Mostly cloudy 6000 ft
Overcast 8000 ft
2021/01/16 05:54 KAKQ 160554Z AUTO 25005KT 10SM -RA BKN060 OVC080 08/07 A2962 RMK AO2 SLP032 P0002 60035 T00780067 10094 20072 58028
KEDE - Edenton, North Carolina, USA
Distance from station: SSW 50mi, 80km
Updated: Sat, 16-Jan-2021 1:35am EST
Rain, Overcast
Rain, Overcast
 Wind from calm
Wind: Calm
Temperature: 48°F , 9°C
Dew Point: 46°F , 8°C
Humidity: 94%
Barometer: 29.65 inHg , 1004.1 hPa
Summary: Rain
Clouds: Overcast
Visibility: 10 miles , 16 km
Cloud details: Partly cloudy 4300 ft
Overcast 4900 ft
2021/01/16 06:35 KEDE 160635Z AUTO 00000KT 10SM RA SCT043 OVC049 09/08 A2965 RMK AO2 P0003 T00900081